sensor_id;sensor_type;location;lat;lon;timestamp;pressure;altitude;pressure_sealevel;temperature;humidity
66486;BME280;53303;47.476;8.084;2023-03-14T00:01:13;93940.09;;;20.34;40.07
66486;BME280;53303;47.476;8.084;2023-03-14T00:03:39;93942.09;;;20.33;39.98
66486;BME280;53303;47.476;8.084;2023-03-14T00:06:07;93996.13;;;20.19;39.95
66486;BME280;53303;47.476;8.084;2023-03-14T00:08:33;93979.91;;;20.23;39.90
66486;BME280;53303;47.476;8.084;2023-03-14T00:11:13;93973.88;;;20.32;39.91
66486;BME280;53303;47.476;8.084;2023-03-14T00:13:41;94003.59;;;20.32;39.93
66486;BME280;53303;47.476;8.084;2023-03-14T00:16:11;94002.81;;;20.24;39.95
66486;BME280;53303;47.476;8.084;2023-03-14T00:18:38;94013.41;;;20.33;39.91
66486;BME280;53303;47.476;8.084;2023-03-14T00:21:05;93980.16;;;20.33;39.82
66486;BME280;53303;47.476;8.084;2023-03-14T00:23:35;93994.00;;;20.33;39.90
66486;BME280;53303;47.476;8.084;2023-03-14T00:26:04;93990.50;;;20.32;39.86
66486;BME280;53303;47.476;8.084;2023-03-14T00:28:29;93998.81;;;20.32;39.76
66486;BME280;53303;47.476;8.084;2023-03-14T00:30:55;93992.50;;;20.32;39.83
66486;BME280;53303;47.476;8.084;2023-03-14T00:33:21;93985.22;;;20.21;39.83
66486;BME280;53303;47.476;8.084;2023-03-14T00:35:58;93990.25;;;20.23;39.80
66486;BME280;53303;47.476;8.084;2023-03-14T00:38:24;94007.66;;;20.31;39.87
66486;BME280;53303;47.476;8.084;2023-03-14T00:40:51;94002.47;;;20.27;39.75
66486;BME280;53303;47.476;8.084;2023-03-14T00:43:17;94011.50;;;20.28;39.86
66486;BME280;53303;47.476;8.084;2023-03-14T00:45:42;94027.78;;;20.31;39.72
66486;BME280;53303;47.476;8.084;2023-03-14T00:48:08;94014.63;;;20.24;39.69
66486;BME280;53303;47.476;8.084;2023-03-14T00:50:36;94001.94;;;20.29;39.76
66486;BME280;53303;47.476;8.084;2023-03-14T00:53:03;94001.31;;;20.23;39.79
66486;BME280;53303;47.476;8.084;2023-03-14T00:55:29;94019.28;;;20.29;39.81
66486;BME280;53303;47.476;8.084;2023-03-14T00:57:54;94015.00;;;20.28;39.80
66486;BME280;53303;47.476;8.084;2023-03-14T01:00:20;94019.63;;;20.26;39.72
66486;BME280;53303;47.476;8.084;2023-03-14T01:02:48;94020.50;;;20.21;39.67
66486;BME280;53303;47.476;8.084;2023-03-14T01:05:13;94028.47;;;20.24;39.62
66486;BME280;53303;47.476;8.084;2023-03-14T01:07:39;94040.16;;;20.30;39.76
66486;BME280;53303;47.476;8.084;2023-03-14T01:10:05;94020.50;;;20.21;39.99
66486;BME280;53303;47.476;8.084;2023-03-14T01:12:33;94033.13;;;20.29;39.71
66486;BME280;53303;47.476;8.084;2023-03-14T01:15:00;94024.22;;;20.23;39.55
66486;BME280;53303;47.476;8.084;2023-03-14T01:17:25;94027.19;;;20.25;39.62
66486;BME280;53303;47.476;8.084;2023-03-14T01:19:50;94015.59;;;20.27;39.78
66486;BME280;53303;47.476;8.084;2023-03-14T01:22:16;93996.19;;;20.27;39.55
66486;BME280;53303;47.476;8.084;2023-03-14T01:24:41;93978.06;;;20.26;39.56
66486;BME280;53303;47.476;8.084;2023-03-14T01:27:07;93979.00;;;20.28;39.69
66486;BME280;53303;47.476;8.084;2023-03-14T01:29:34;93955.91;;;20.26;39.62
66486;BME280;53303;47.476;8.084;2023-03-14T01:32:00;93956.13;;;20.28;39.75
66486;BME280;53303;47.476;8.084;2023-03-14T01:34:25;93950.56;;;20.28;39.76
66486;BME280;53303;47.476;8.084;2023-03-14T01:36:51;93972.72;;;20.28;39.55
66486;BME280;53303;47.476;8.084;2023-03-14T01:39:16;93992.84;;;20.28;39.77
66486;BME280;53303;47.476;8.084;2023-03-14T01:42:12;93989.16;;;20.26;39.69
66486;BME280;53303;47.476;8.084;2023-03-14T01:44:56;93981.38;;;20.24;39.59
66486;BME280;53303;47.476;8.084;2023-03-14T01:47:23;93983.44;;;20.24;39.85
66486;BME280;53303;47.476;8.084;2023-03-14T01:50:01;93967.72;;;20.26;39.46
66486;BME280;53303;47.476;8.084;2023-03-14T01:53:00;93969.38;;;20.22;39.67
66486;BME280;53303;47.476;8.084;2023-03-14T01:55:28;93960.19;;;20.27;39.68
66486;BME280;53303;47.476;8.084;2023-03-14T01:57:58;93982.34;;;20.27;39.64
66486;BME280;53303;47.476;8.084;2023-03-14T02:00:28;93972.53;;;20.26;39.76
66486;BME280;53303;47.476;8.084;2023-03-14T02:06:18;93969.78;;;20.26;39.50
66486;BME280;53303;47.476;8.084;2023-03-14T02:08:48;93943.66;;;20.13;39.67
66486;BME280;53303;47.476;8.084;2023-03-14T02:11:17;93935.16;;;20.11;39.60
66486;BME280;53303;47.476;8.084;2023-03-14T02:13:43;93940.78;;;20.27;39.49
66486;BME280;53303;47.476;8.084;2023-03-14T02:16:09;93924.13;;;20.19;39.39
66486;BME280;53303;47.476;8.084;2023-03-14T02:18:35;93940.03;;;20.26;39.61
66486;BME280;53303;47.476;8.084;2023-03-14T02:21:09;93935.25;;;20.27;39.50
66486;BME280;53303;47.476;8.084;2023-03-14T02:23:51;93933.75;;;20.26;39.64
66486;BME280;53303;47.476;8.084;2023-03-14T02:26:28;93931.72;;;20.26;39.33
66486;BME280;53303;47.476;8.084;2023-03-14T02:28:57;93930.81;;;20.24;39.40
66486;BME280;53303;47.476;8.084;2023-03-14T02:31:25;93901.97;;;20.19;39.59
66486;BME280;53303;47.476;8.084;2023-03-14T02:33:51;93911.59;;;20.26;39.43
66486;BME280;53303;47.476;8.084;2023-03-14T02:36:20;93895.34;;;20.22;39.48
66486;BME280;53303;47.476;8.084;2023-03-14T02:39:00;93895.72;;;20.26;39.43
66486;BME280;53303;47.476;8.084;2023-03-14T02:41:31;93887.41;;;20.26;39.33
66486;BME280;53303;47.476;8.084;2023-03-14T02:43:56;93884.25;;;20.22;39.45
66486;BME280;53303;47.476;8.084;2023-03-14T02:46:22;93879.09;;;20.26;39.39
66486;BME280;53303;47.476;8.084;2023-03-14T02:48:51;93883.19;;;20.25;39.32
66486;BME280;53303;47.476;8.084;2023-03-14T02:51:21;93868.03;;;20.26;39.26
66486;BME280;53303;47.476;8.084;2023-03-14T02:53:51;93863.19;;;20.19;39.16
66486;BME280;53303;47.476;8.084;2023-03-14T02:56:18;93861.75;;;20.26;39.29
66486;BME280;53303;47.476;8.084;2023-03-14T02:58:44;93845.66;;;20.16;39.32
66486;BME280;53303;47.476;8.084;2023-03-14T03:01:13;93859.53;;;20.24;39.22
66486;BME280;53303;47.476;8.084;2023-03-14T03:03:38;93844.75;;;20.22;39.35
66486;BME280;53303;47.476;8.084;2023-03-14T03:06:06;93859.91;;;20.28;39.24
66486;BME280;53303;47.476;8.084;2023-03-14T03:08:34;93839.38;;;20.16;39.26
66486;BME280;53303;47.476;8.084;2023-03-14T03:11:00;93835.13;;;20.15;39.25
66486;BME280;53303;47.476;8.084;2023-03-14T03:13:25;93844.59;;;20.27;39.18
66486;BME280;53303;47.476;8.084;2023-03-14T03:15:51;93842.56;;;20.28;39.08
66486;BME280;53303;47.476;8.084;2023-03-14T03:18:17;93841.44;;;20.23;39.13
66486;BME280;53303;47.476;8.084;2023-03-14T03:20:42;93830.72;;;20.20;39.09
66486;BME280;53303;47.476;8.084;2023-03-14T03:23:08;93840.31;;;20.26;39.23
66486;BME280;53303;47.476;8.084;2023-03-14T03:25:35;93838.31;;;20.27;39.06
66486;BME280;53303;47.476;8.084;2023-03-14T03:28:01;93833.50;;;20.27;39.12
66486;BME280;53303;47.476;8.084;2023-03-14T03:30:27;93834.59;;;20.24;39.05
66486;BME280;53303;47.476;8.084;2023-03-14T03:32:52;93836.28;;;20.27;39.05
66486;BME280;53303;47.476;8.084;2023-03-14T03:35:20;93817.44;;;20.26;39.17
66486;BME280;53303;47.476;8.084;2023-03-14T03:37:45;93833.13;;;20.23;39.12
66486;BME280;53303;47.476;8.084;2023-03-14T03:40:12;93822.44;;;20.27;39.07
66486;BME280;53303;47.476;8.084;2023-03-14T03:42:40;93818.94;;;20.27;38.99
66486;BME280;53303;47.476;8.084;2023-03-14T03:45:06;93808.34;;;20.17;39.11
66486;BME280;53303;47.476;8.084;2023-03-14T03:47:31;93804.31;;;20.26;38.97
66486;BME280;53303;47.476;8.084;2023-03-14T03:49:59;93809.66;;;20.24;38.92
66486;BME280;53303;47.476;8.084;2023-03-14T03:52:24;93823.72;;;20.26;39.14
66486;BME280;53303;47.476;8.084;2023-03-14T03:54:50;93814.47;;;20.24;38.95
66486;BME280;53303;47.476;8.084;2023-03-14T03:57:15;93793.25;;;20.26;38.94
66486;BME280;53303;47.476;8.084;2023-03-14T03:59:43;93776.41;;;20.16;38.73
66486;BME280;53303;47.476;8.084;2023-03-14T04:02:08;93810.75;;;20.21;39.08
66486;BME280;53303;47.476;8.084;2023-03-14T04:04:34;93805.63;;;20.25;38.86
66486;BME280;53303;47.476;8.084;2023-03-14T04:06:59;93797.25;;;20.10;38.97
66486;BME280;53303;47.476;8.084;2023-03-14T04:09:25;93792.50;;;20.26;38.95
66486;BME280;53303;47.476;8.084;2023-03-14T04:11:50;93799.91;;;20.23;38.88
66486;BME280;53303;47.476;8.084;2023-03-14T04:14:16;93800.81;;;20.26;38.93
66486;BME280;53303;47.476;8.084;2023-03-14T04:16:41;93809.66;;;20.24;38.85
66486;BME280;53303;47.476;8.084;2023-03-14T04:19:06;93766.06;;;20.09;38.97
66486;BME280;53303;47.476;8.084;2023-03-14T04:21:34;93777.16;;;20.25;39.01
66486;BME280;53303;47.476;8.084;2023-03-14T04:24:00;93785.47;;;20.25;38.99
66486;BME280;53303;47.476;8.084;2023-03-14T04:26:25;93764.63;;;20.24;38.80
66486;BME280;53303;47.476;8.084;2023-03-14T04:32:15;93731.34;;;20.08;38.82
66486;BME280;53303;47.476;8.084;2023-03-14T04:34:43;93714.19;;;20.10;38.83
66486;BME280;53303;47.476;8.084;2023-03-14T04:37:11;93712.50;;;20.07;38.72
66486;BME280;53303;47.476;8.084;2023-03-14T04:39:37;93737.47;;;20.22;38.91
66486;BME280;53303;47.476;8.084;2023-03-14T04:42:05;93696.06;;;20.01;38.69
66486;BME280;53303;47.476;8.084;2023-03-14T04:44:33;93713.66;;;20.19;38.79
66486;BME280;53303;47.476;8.084;2023-03-14T04:46:58;93680.22;;;20.09;38.90
66486;BME280;53303;47.476;8.084;2023-03-14T04:49:24;93703.50;;;20.22;38.77
66486;BME280;53303;47.476;8.084;2023-03-14T04:51:54;93694.06;;;20.09;38.87
66486;BME280;53303;47.476;8.084;2023-03-14T04:54:22;93662.84;;;20.01;38.74
66486;BME280;53303;47.476;8.084;2023-03-14T04:56:52;93681.19;;;20.20;38.71
66486;BME280;53303;47.476;8.084;2023-03-14T04:59:17;93677.28;;;20.15;38.41
66486;BME280;53303;47.476;8.084;2023-03-14T05:01:45;93672.28;;;20.06;38.37
66486;BME280;53303;47.476;8.084;2023-03-14T05:04:16;93704.41;;;20.16;38.26
66486;BME280;53303;47.476;8.084;2023-03-14T05:06:43;93668.75;;;20.05;38.26
66486;BME280;53303;47.476;8.084;2023-03-14T05:09:11;93703.16;;;20.25;38.38
66486;BME280;53303;47.476;8.084;2023-03-14T05:11:37;93682.09;;;20.14;38.09
66486;BME280;53303;47.476;8.084;2023-03-14T05:14:02;93640.69;;;20.09;37.77
66486;BME280;53303;47.476;8.084;2023-03-14T05:16:30;93608.34;;;19.81;37.65
66486;BME280;53303;47.476;8.084;2023-03-14T05:18:58;93646.28;;;20.16;37.74
66486;BME280;53303;47.476;8.084;2023-03-14T05:21:23;93609.50;;;20.01;38.05
66486;BME280;53303;47.476;8.084;2023-03-14T05:23:51;93593.81;;;19.95;37.94
66486;BME280;53303;47.476;8.084;2023-03-14T05:26:17;93600.66;;;20.10;37.88
66486;BME280;53303;47.476;8.084;2023-03-14T05:28:47;93576.09;;;20.06;38.09
66486;BME280;53303;47.476;8.084;2023-03-14T05:31:14;93559.28;;;19.89;38.03
66486;BME280;53303;47.476;8.084;2023-03-14T05:33:40;93579.44;;;20.12;38.08
66486;BME280;53303;47.476;8.084;2023-03-14T05:36:06;93577.38;;;20.05;38.20
66486;BME280;53303;47.476;8.084;2023-03-14T05:38:32;93592.94;;;20.16;38.06
66486;BME280;53303;47.476;8.084;2023-03-14T05:40:57;93591.03;;;20.03;38.32
66486;BME280;53303;47.476;8.084;2023-03-14T05:43:25;93578.69;;;20.04;38.41
66486;BME280;53303;47.476;8.084;2023-03-14T05:45:50;93596.97;;;20.07;38.40
66486;BME280;53303;47.476;8.084;2023-03-14T05:48:16;93594.34;;;20.02;38.36
66486;BME280;53303;47.476;8.084;2023-03-14T05:50:42;93616.91;;;20.13;38.39
66486;BME280;53303;47.476;8.084;2023-03-14T05:53:07;93556.34;;;20.02;38.44
66486;BME280;53303;47.476;8.084;2023-03-14T05:55:33;93612.09;;;20.14;38.53
66486;BME280;53303;47.476;8.084;2023-03-14T05:57:58;93592.91;;;20.08;38.46
66486;BME280;53303;47.476;8.084;2023-03-14T06:00:26;93592.53;;;19.96;38.45
66486;BME280;53303;47.476;8.084;2023-03-14T06:02:51;93572.97;;;20.02;38.42
66486;BME280;53303;47.476;8.084;2023-03-14T06:05:19;93573.69;;;20.10;38.31
66486;BME280;53303;47.476;8.084;2023-03-14T06:07:44;93570.38;;;20.04;38.47
66486;BME280;53303;47.476;8.084;2023-03-14T06:10:13;93570.56;;;20.06;38.38
66486;BME280;53303;47.476;8.084;2023-03-14T06:12:38;93578.50;;;20.10;38.54
66486;BME280;53303;47.476;8.084;2023-03-14T06:15:06;93557.09;;;20.03;38.32
66486;BME280;53303;47.476;8.084;2023-03-14T06:17:37;93578.31;;;20.00;38.45
66486;BME280;53303;47.476;8.084;2023-03-14T06:20:03;93570.00;;;20.08;38.67
66486;BME280;53303;47.476;8.084;2023-03-14T06:22:30;93610.44;;;20.11;38.41
66486;BME280;53303;47.476;8.084;2023-03-14T06:24:56;93596.56;;;20.03;38.40
66486;BME280;53303;47.476;8.084;2023-03-14T06:27:21;93583.66;;;19.98;38.40
66486;BME280;53303;47.476;8.084;2023-03-14T06:29:46;93585.69;;;19.97;38.50
66486;BME280;53303;47.476;8.084;2023-03-14T06:32:12;93587.72;;;19.97;38.46
66486;BME280;53303;47.476;8.084;2023-03-14T06:34:37;93608.41;;;20.04;38.48
66486;BME280;53303;47.476;8.084;2023-03-14T06:37:06;93607.09;;;19.97;38.36
66486;BME280;53303;47.476;8.084;2023-03-14T06:39:31;93610.81;;;20.07;38.34
66486;BME280;53303;47.476;8.084;2023-03-14T06:41:59;93597.50;;;19.98;38.40
66486;BME280;53303;47.476;8.084;2023-03-14T06:44:27;93598.81;;;20.05;38.49
66486;BME280;53303;47.476;8.084;2023-03-14T06:46:52;93601.75;;;20.07;38.52
66486;BME280;53303;47.476;8.084;2023-03-14T06:49:20;93591.94;;;19.98;38.30
66486;BME280;53303;47.476;8.084;2023-03-14T06:51:50;93595.31;;;20.04;38.45
66486;BME280;53303;47.476;8.084;2023-03-14T06:54:16;93605.66;;;20.11;38.44
66486;BME280;53303;47.476;8.084;2023-03-14T06:56:41;93577.38;;;19.97;38.46
66486;BME280;53303;47.476;8.084;2023-03-14T06:59:07;93613.22;;;20.11;38.57
66486;BME280;53303;47.476;8.084;2023-03-14T07:01:35;93604.16;;;20.10;38.47
66486;BME280;53303;47.476;8.084;2023-03-14T07:04:02;93597.31;;;19.96;38.49
66486;BME280;53303;47.476;8.084;2023-03-14T07:06:28;93627.63;;;20.09;38.50
66486;BME280;53303;47.476;8.084;2023-03-14T07:08:56;93601.38;;;20.10;38.37
66486;BME280;53303;47.476;8.084;2023-03-14T07:11:24;93587.72;;;20.05;38.31
66486;BME280;53303;47.476;8.084;2023-03-14T07:13:50;93592.53;;;19.96;38.13
66486;BME280;53303;47.476;8.084;2023-03-14T07:16:19;93612.09;;;20.06;38.28
66486;BME280;53303;47.476;8.084;2023-03-14T07:18:45;93607.69;;;20.11;38.31
66486;BME280;53303;47.476;8.084;2023-03-14T07:21:11;93583.81;;;19.92;38.31
66486;BME280;53303;47.476;8.084;2023-03-14T07:23:38;93611.72;;;20.10;38.25
66486;BME280;53303;47.476;8.084;2023-03-14T07:26:04;93584.94;;;19.89;38.32
66486;BME280;53303;47.476;8.084;2023-03-14T07:28:32;93610.25;;;20.09;38.16
66486;BME280;53303;47.476;8.084;2023-03-14T07:30:57;93556.13;;;19.77;38.21
66486;BME280;53303;47.476;8.084;2023-03-14T07:33:27;93595.66;;;20.01;38.30
66486;BME280;53303;47.476;8.084;2023-03-14T07:35:55;93608.97;;;20.10;38.41
66486;BME280;53303;47.476;8.084;2023-03-14T07:38:23;93600.06;;;19.88;38.25
66486;BME280;53303;47.476;8.084;2023-03-14T07:40:57;93599.16;;;19.93;38.16
66486;BME280;53303;47.476;8.084;2023-03-14T07:43:23;93606.19;;;20.02;38.13
66486;BME280;53303;47.476;8.084;2023-03-14T07:45:50;93605.25;;;19.92;38.44
66486;BME280;53303;47.476;8.084;2023-03-14T07:48:21;93648.47;;;20.10;38.19
66486;BME280;53303;47.476;8.084;2023-03-14T07:50:51;93656.94;;;20.05;38.43
66486;BME280;53303;47.476;8.084;2023-03-14T07:53:17;93663.06;;;20.11;38.31
66486;BME280;53303;47.476;8.084;2023-03-14T07:55:42;93642.19;;;20.10;38.35
66486;BME280;53303;47.476;8.084;2023-03-14T07:58:10;93645.50;;;20.01;38.54
66486;BME280;53303;47.476;8.084;2023-03-14T08:00:38;93628.69;;;19.99;38.30
66486;BME280;53303;47.476;8.084;2023-03-14T08:03:08;93633.50;;;20.06;38.30
66486;BME280;53303;47.476;8.084;2023-03-14T08:05:36;93645.69;;;20.10;38.36
66486;BME280;53303;47.476;8.084;2023-03-14T08:08:03;93627.94;;;19.98;38.29
66486;BME280;53303;47.476;8.084;2023-03-14T08:10:32;93663.06;;;20.11;38.13
66486;BME280;53303;47.476;8.084;2023-03-14T08:12:58;93652.72;;;20.11;38.21
66486;BME280;53303;47.476;8.084;2023-03-14T08:15:25;93653.81;;;20.08;37.86
66486;BME280;53303;47.476;8.084;2023-03-14T08:17:51;93653.44;;;19.96;38.05
66486;BME280;53303;47.476;8.084;2023-03-14T08:20:25;93671.50;;;20.05;38.26
66486;BME280;53303;47.476;8.084;2023-03-14T08:22:50;93684.66;;;20.12;38.25
66486;BME280;53303;47.476;8.084;2023-03-14T08:25:16;93658.78;;;20.02;38.25
66486;BME280;53303;47.476;8.084;2023-03-14T08:27:44;93657.13;;;19.99;38.11
66486;BME280;53303;47.476;8.084;2023-03-14T08:30:12;93661.56;;;20.02;37.95
66486;BME280;53303;47.476;8.084;2023-03-14T08:32:38;93686.69;;;20.12;38.08
66486;BME280;53303;47.476;8.084;2023-03-14T08:35:04;93703.66;;;20.08;38.03
66486;BME280;53303;47.476;8.084;2023-03-14T08:37:33;93682.94;;;20.02;37.87
66486;BME280;53303;47.476;8.084;2023-03-14T08:39:59;93696.66;;;20.07;38.06
66486;BME280;53303;47.476;8.084;2023-03-14T08:42:24;93699.91;;;19.98;38.16
66486;BME280;53303;47.476;8.084;2023-03-14T08:44:52;93725.44;;;20.12;38.13
66486;BME280;53303;47.476;8.084;2023-03-14T08:47:18;93703.09;;;20.02;38.07
66486;BME280;53303;47.476;8.084;2023-03-14T08:49:44;93728.31;;;19.91;38.17
66486;BME280;53303;47.476;8.084;2023-03-14T08:52:09;93734.09;;;20.01;38.03
66486;BME280;53303;47.476;8.084;2023-03-14T08:54:35;93736.50;;;20.12;38.10
66486;BME280;53303;47.476;8.084;2023-03-14T08:57:00;93711.00;;;19.98;37.96
66486;BME280;53303;47.476;8.084;2023-03-14T08:59:26;93713.63;;;20.11;37.85
66486;BME280;53303;47.476;8.084;2023-03-14T09:01:53;93693.84;;;20.00;38.01
66486;BME280;53303;47.476;8.084;2023-03-14T09:04:24;93718.94;;;20.02;38.06
66486;BME280;53303;47.476;8.084;2023-03-14T09:06:54;93745.69;;;19.99;37.86
66486;BME280;53303;47.476;8.084;2023-03-14T09:09:20;93689.56;;;19.91;37.92
66486;BME280;53303;47.476;8.084;2023-03-14T09:11:48;93707.66;;;19.92;37.88
66486;BME280;53303;47.476;8.084;2023-03-14T09:14:13;93725.44;;;20.12;38.10
66486;BME280;53303;47.476;8.084;2023-03-14T09:16:41;93720.25;;;20.01;37.85
66486;BME280;53303;47.476;8.084;2023-03-14T09:19:06;93740.91;;;20.00;37.90
66486;BME280;53303;47.476;8.084;2023-03-14T09:21:31;93738.13;;;20.00;38.07
66486;BME280;53303;47.476;8.084;2023-03-14T09:23:57;93742.41;;;20.08;37.87
66486;BME280;53303;47.476;8.084;2023-03-14T09:26:22;93743.50;;;20.05;38.00
66486;BME280;53303;47.476;8.084;2023-03-14T09:28:47;93746.84;;;20.11;37.80
66486;BME280;53303;47.476;8.084;2023-03-14T09:31:16;93751.81;;;20.05;37.63
66486;BME280;53303;47.476;8.084;2023-03-14T09:33:44;93757.34;;;20.05;37.98
66486;BME280;53303;47.476;8.084;2023-03-14T09:36:10;93775.28;;;20.12;37.96
66486;BME280;53303;47.476;8.084;2023-03-14T09:38:38;93740.91;;;20.00;37.88
66486;BME280;53303;47.476;8.084;2023-03-14T09:41:27;93767.88;;;20.07;37.89
66486;BME280;53303;47.476;8.084;2023-03-14T09:46:42;93760.81;;;19.98;37.95
66486;BME280;53303;47.476;8.084;2023-03-14T09:49:29;93763.94;;;19.94;38.38
66486;BME280;53303;47.476;8.084;2023-03-14T09:51:58;93789.66;;;20.10;37.92
66486;BME280;53303;47.476;8.084;2023-03-14T09:54:44;93778.19;;;19.99;37.84
66486;BME280;53303;47.476;8.084;2023-03-14T09:57:24;93786.50;;;19.99;37.90
66486;BME280;53303;47.476;8.084;2023-03-14T09:59:52;93793.69;;;20.02;37.72
66486;BME280;53303;47.476;8.084;2023-03-14T10:02:23;93823.66;;;20.11;37.72
66486;BME280;53303;47.476;8.084;2023-03-14T10:04:53;93810.16;;;20.07;37.83
66486;BME280;53303;47.476;8.084;2023-03-14T10:07:29;93810.53;;;20.04;37.63
66486;BME280;53303;47.476;8.084;2023-03-14T10:09:59;93821.63;;;20.11;37.86
66486;BME280;53303;47.476;8.084;2023-03-14T10:12:36;93796.31;;;20.07;37.86
66486;BME280;53303;47.476;8.084;2023-03-14T10:15:10;93803.31;;;20.08;37.65
66486;BME280;53303;47.476;8.084;2023-03-14T10:17:47;93798.13;;;20.05;37.87
66486;BME280;53303;47.476;8.084;2023-03-14T10:23:04;93830.97;;;20.01;37.75
66486;BME280;53303;47.476;8.084;2023-03-14T10:25:35;93818.84;;;20.11;37.97
66486;BME280;53303;47.476;8.084;2023-03-14T10:28:03;93833.97;;;20.10;37.87
66486;BME280;53303;47.476;8.084;2023-03-14T10:30:45;93842.81;;;20.09;37.91
66486;BME280;53303;47.476;8.084;2023-03-14T10:33:28;93851.88;;;20.09;37.71
66486;BME280;53303;47.476;8.084;2023-03-14T10:36:00;93843.59;;;20.09;37.81
66486;BME280;53303;47.476;8.084;2023-03-14T10:38:34;93853.28;;;19.95;37.84
66486;BME280;53303;47.476;8.084;2023-03-14T10:41:00;93860.19;;;20.09;37.84
66486;BME280;53303;47.476;8.084;2023-03-14T10:43:35;93864.97;;;20.09;37.75
66486;BME280;53303;47.476;8.084;2023-03-14T10:46:08;93845.38;;;19.99;37.92
66486;BME280;53303;47.476;8.084;2023-03-14T10:48:43;93878.59;;;19.99;37.96
66486;BME280;53303;47.476;8.084;2023-03-14T10:51:18;93893.41;;;20.09;37.80
66486;BME280;53303;47.476;8.084;2023-03-14T10:53:50;93903.00;;;20.08;37.84
66486;BME280;53303;47.476;8.084;2023-03-14T10:56:22;93893.34;;;20.02;38.02
66486;BME280;53303;47.476;8.084;2023-03-14T10:58:53;93897.97;;;19.99;37.97
66486;BME280;53303;47.476;8.084;2023-03-14T11:02:10;93937.88;;;20.04;37.95
66486;BME280;53303;47.476;8.084;2023-03-14T11:15:17;93961.50;;;20.05;38.01
66486;BME280;53303;47.476;8.084;2023-03-14T11:26:35;93970.34;;;20.03;38.03
66486;BME280;53303;47.476;8.084;2023-03-14T11:29:16;93984.19;;;20.03;38.07
66486;BME280;53303;47.476;8.084;2023-03-14T11:31:45;93966.78;;;19.95;38.11
66486;BME280;53303;47.476;8.084;2023-03-14T11:34:24;93989.00;;;20.03;38.04
66486;BME280;53303;47.476;8.084;2023-03-14T11:37:06;93981.50;;;19.90;38.26
66486;BME280;53303;47.476;8.084;2023-03-14T11:39:39;93990.75;;;19.92;38.34
66486;BME280;53303;47.476;8.084;2023-03-14T11:42:11;93989.19;;;19.84;38.09
66486;BME280;53303;47.476;8.084;2023-03-14T11:44:39;94039.34;;;20.01;38.17
66486;BME280;53303;47.476;8.084;2023-03-14T11:47:25;94077.38;;;20.01;37.98
66486;BME280;53303;47.476;8.084;2023-03-14T11:50:16;94073.31;;;20.02;38.14
66486;BME280;53303;47.476;8.084;2023-03-14T11:55:27;94080.97;;;19.88;38.09
66486;BME280;53303;47.476;8.084;2023-03-14T11:57:57;94056.72;;;19.81;38.00
66486;BME280;53303;47.476;8.084;2023-03-14T12:00:28;94125.19;;;20.01;38.29
66486;BME280;53303;47.476;8.084;2023-03-14T12:06:13;94102.50;;;20.03;38.19
66486;BME280;53303;47.476;8.084;2023-03-14T12:11:18;94121.34;;;20.04;37.92
66486;BME280;53303;47.476;8.084;2023-03-14T12:13:53;94081.91;;;19.90;37.88
66486;BME280;53303;47.476;8.084;2023-03-14T12:18:49;94125.72;;;20.00;38.04
66486;BME280;53303;47.476;8.084;2023-03-14T12:21:16;94130.59;;;20.07;38.07
66486;BME280;53303;47.476;8.084;2023-03-14T12:23:50;94155.13;;;20.03;38.10
66486;BME280;53303;47.476;8.084;2023-03-14T12:26:18;94164.59;;;20.07;38.08
66486;BME280;53303;47.476;8.084;2023-03-14T12:44:49;94248.53;;;20.02;38.02
66486;BME280;53303;47.476;8.084;2023-03-14T12:49:50;94235.00;;;19.99;37.85
66486;BME280;53303;47.476;8.084;2023-03-14T12:58:46;94254.38;;;19.99;37.83
66486;BME280;53303;47.476;8.084;2023-03-14T13:01:18;94266.31;;;19.93;38.05
66486;BME280;53303;47.476;8.084;2023-03-14T13:03:47;94294.72;;;20.07;37.80
66486;BME280;53303;47.476;8.084;2023-03-14T13:06:48;94294.28;;;20.03;38.01
66486;BME280;53303;47.476;8.084;2023-03-14T13:14:29;94296.00;;;20.06;37.95
66486;BME280;53303;47.476;8.084;2023-03-14T13:17:03;94290.38;;;19.99;37.83
66486;BME280;53303;47.476;8.084;2023-03-14T13:19:30;94301.53;;;20.06;37.94
66486;BME280;53303;47.476;8.084;2023-03-14T13:22:22;94278.66;;;19.92;37.99
66486;BME280;53303;47.476;8.084;2023-03-14T13:24:59;94305.91;;;20.02;37.89
66486;BME280;53303;47.476;8.084;2023-03-14T13:27:25;94299.41;;;19.99;37.97
66486;BME280;53303;47.476;8.084;2023-03-14T13:29:53;94300.91;;;20.00;37.89
66486;BME280;53303;47.476;8.084;2023-03-14T13:32:26;94312.81;;;20.08;37.78
66486;BME280;53303;47.476;8.084;2023-03-14T13:34:56;94299.31;;;19.91;38.01
66486;BME280;53303;47.476;8.084;2023-03-14T13:37:24;94324.63;;;20.09;37.90
66486;BME280;53303;47.476;8.084;2023-03-14T13:39:55;94342.00;;;20.09;37.92
66486;BME280;53303;47.476;8.084;2023-03-14T13:42:24;94344.25;;;20.11;37.97
66486;BME280;53303;47.476;8.084;2023-03-14T13:44:52;94353.09;;;20.09;37.94
66486;BME280;53303;47.476;8.084;2023-03-14T13:47:19;94319.31;;;19.97;37.83
66486;BME280;53303;47.476;8.084;2023-03-14T13:49:46;94345.97;;;20.01;38.01
66486;BME280;53303;47.476;8.084;2023-03-14T13:52:27;94319.75;;;19.88;37.99
66486;BME280;53303;47.476;8.084;2023-03-14T13:54:54;94351.59;;;20.08;38.03
66486;BME280;53303;47.476;8.084;2023-03-14T13:57:20;94337.66;;;20.01;37.75
66486;BME280;53303;47.476;8.084;2023-03-14T14:00:05;94335.00;;;19.95;37.94
66486;BME280;53303;47.476;8.084;2023-03-14T14:02:36;94341.56;;;20.05;37.89
66486;BME280;53303;47.476;8.084;2023-03-14T14:05:05;94348.94;;;20.03;37.88
66486;BME280;53303;47.476;8.084;2023-03-14T14:07:33;94342.53;;;19.94;37.90
66486;BME280;53303;47.476;8.084;2023-03-14T14:10:09;94338.59;;;20.03;37.95
66486;BME280;53303;47.476;8.084;2023-03-14T14:15:14;94341.06;;;19.93;37.92
66486;BME280;53303;47.476;8.084;2023-03-14T14:17:45;94356.50;;;20.02;37.95
66486;BME280;53303;47.476;8.084;2023-03-14T14:20:22;94353.41;;;19.92;38.02
66486;BME280;53303;47.476;8.084;2023-03-14T14:22:51;94334.88;;;20.01;38.07
66486;BME280;53303;47.476;8.084;2023-03-14T14:25:17;94351.59;;;20.08;37.72